sensor_id;sensor_type;location;lat;lon;timestamp;pressure;altitude;pressure_sealevel;temperature;humidity
21520;BME280;10921;53.614;9.882;2023-04-15T00:01:48;100784.63;;;9.90;79.67
21520;BME280;10921;53.614;9.882;2023-04-15T00:04:15;100758.66;;;9.82;79.34
21520;BME280;10921;53.614;9.882;2023-04-15T00:06:42;100777.47;;;9.90;79.20
21520;BME280;10921;53.614;9.882;2023-04-15T00:09:08;100735.06;;;9.68;79.74
21520;BME280;10921;53.614;9.882;2023-04-15T00:11:34;100762.16;;;9.82;80.19
21520;BME280;10921;53.614;9.882;2023-04-15T00:14:01;100760.34;;;9.83;79.44
21520;BME280;10921;53.614;9.882;2023-04-15T00:16:27;100767.75;;;9.79;80.49
21520;BME280;10921;53.614;9.882;2023-04-15T00:18:54;100762.75;;;9.76;81.10
21520;BME280;10921;53.614;9.882;2023-04-15T00:21:20;100764.56;;;9.76;81.17
21520;BME280;10921;53.614;9.882;2023-04-15T00:23:47;100759.63;;;9.71;81.80
21520;BME280;10921;53.614;9.882;2023-04-15T00:26:17;100750.63;;;9.63;82.59
21520;BME280;10921;53.614;9.882;2023-04-15T00:28:45;100762.00;;;9.65;82.78
21520;BME280;10921;53.614;9.882;2023-04-15T00:31:12;100757.22;;;9.59;83.50
21520;BME280;10921;53.614;9.882;2023-04-15T00:33:39;100721.59;;;9.40;83.19
21520;BME280;10921;53.614;9.882;2023-04-15T00:36:06;100746.84;;;9.56;82.81
21520;BME280;10921;53.614;9.882;2023-04-15T00:38:33;100744.44;;;9.52;83.26
21520;BME280;10921;53.614;9.882;2023-04-15T00:41:00;100744.44;;;9.52;83.78
21520;BME280;10921;53.614;9.882;2023-04-15T00:43:29;100751.06;;;9.58;83.75
21520;BME280;10921;53.614;9.882;2023-04-15T00:45:55;100714.13;;;9.34;84.21
21520;BME280;10921;53.614;9.882;2023-04-15T00:48:25;100718.22;;;9.38;84.17
21520;BME280;10921;53.614;9.882;2023-04-15T00:50:52;100749.38;;;9.57;84.48
21520;BME280;10921;53.614;9.882;2023-04-15T00:53:18;100743.88;;;9.49;85.13
21520;BME280;10921;53.614;9.882;2023-04-15T00:55:45;100745.56;;;9.50;86.02
21520;BME280;10921;53.614;9.882;2023-04-15T00:58:12;100743.47;;;9.53;85.85
21520;BME280;10921;53.614;9.882;2023-04-15T01:00:39;100764.78;;;9.53;85.23
21520;BME280;10921;53.614;9.882;2023-04-15T01:03:06;100742.06;;;9.49;84.76
21520;BME280;10921;53.614;9.882;2023-04-15T01:05:34;100734.91;;;9.40;85.36
21520;BME280;10921;53.614;9.882;2023-04-15T01:08:01;100749.34;;;9.47;85.69
21520;BME280;10921;53.614;9.882;2023-04-15T01:10:30;100712.59;;;9.32;85.45
21520;BME280;10921;53.614;9.882;2023-04-15T01:12:56;100740.53;;;9.47;84.94
21520;BME280;10921;53.614;9.882;2023-04-15T01:15:23;100751.19;;;9.47;85.66
21520;BME280;10921;53.614;9.882;2023-04-15T01:17:50;100748.78;;;9.44;85.17
21520;BME280;10921;53.614;9.882;2023-04-15T01:20:17;100745.53;;;9.40;85.93
21520;BME280;10921;53.614;9.882;2023-04-15T01:22:43;100726.72;;;9.32;86.56
21520;BME280;10921;53.614;9.882;2023-04-15T01:25:12;100692.66;;;9.16;85.88
21520;BME280;10921;53.614;9.882;2023-04-15T01:27:42;100720.00;;;9.28;85.69
21520;BME280;10921;53.614;9.882;2023-04-15T01:30:09;100760.28;;;9.44;85.74
21520;BME280;10921;53.614;9.882;2023-04-15T01:32:37;100740.94;;;9.42;86.21
21520;BME280;10921;53.614;9.882;2023-04-15T01:35:04;100735.28;;;9.36;86.26
21520;BME280;10921;53.614;9.882;2023-04-15T01:37:31;100731.13;;;9.43;86.60
21520;BME280;10921;53.614;9.882;2023-04-15T01:39:57;100737.28;;;9.43;87.31
21520;BME280;10921;53.614;9.882;2023-04-15T01:42:25;100707.69;;;9.37;86.85
21520;BME280;10921;53.614;9.882;2023-04-15T01:44:52;100729.16;;;9.45;86.98
21520;BME280;10921;53.614;9.882;2023-04-15T01:47:19;100725.66;;;9.44;87.42
21520;BME280;10921;53.614;9.882;2023-04-15T01:49:46;100714.44;;;9.41;88.06
21520;BME280;10921;53.614;9.882;2023-04-15T01:52:12;100713.19;;;9.45;88.01
21520;BME280;10921;53.614;9.882;2023-04-15T01:54:39;100708.00;;;9.43;87.81
21520;BME280;10921;53.614;9.882;2023-04-15T01:57:06;100703.91;;;9.39;88.16
21520;BME280;10921;53.614;9.882;2023-04-15T01:59:33;100707.28;;;9.41;88.56
21520;BME280;10921;53.614;9.882;2023-04-15T02:01:59;100697.16;;;9.35;88.89
21520;BME280;10921;53.614;9.882;2023-04-15T02:04:26;100715.00;;;9.44;89.97
21520;BME280;10921;53.614;9.882;2023-04-15T02:06:53;100706.72;;;9.47;89.29
21520;BME280;10921;53.614;9.882;2023-04-15T02:09:19;100704.91;;;9.48;89.06
21520;BME280;10921;53.614;9.882;2023-04-15T02:11:46;100657.63;;;9.21;89.01
21520;BME280;10921;53.614;9.882;2023-04-15T02:14:12;100693.69;;;9.44;88.97
21520;BME280;10921;53.614;9.882;2023-04-15T02:16:39;100663.97;;;9.30;89.80
21520;BME280;10921;53.614;9.882;2023-04-15T02:19:06;100703.25;;;9.47;89.92
21520;BME280;10921;53.614;9.882;2023-04-15T02:21:33;100705.59;;;9.50;89.08
21520;BME280;10921;53.614;9.882;2023-04-15T02:24:00;100704.63;;;9.51;89.60
21520;BME280;10921;53.614;9.882;2023-04-15T02:26:27;100704.63;;;9.51;89.60
21520;BME280;10921;53.614;9.882;2023-04-15T02:28:57;100670.69;;;9.34;89.40
21520;BME280;10921;53.614;9.882;2023-04-15T02:31:24;100714.31;;;9.52;89.32
21520;BME280;10921;53.614;9.882;2023-04-15T02:33:51;100712.47;;;9.52;89.83
21520;BME280;10921;53.614;9.882;2023-04-15T02:36:18;100708.84;;;9.53;89.81
21520;BME280;10921;53.614;9.882;2023-04-15T02:38:46;100713.91;;;9.57;89.53
21520;BME280;10921;53.614;9.882;2023-04-15T02:41:12;100718.38;;;9.56;89.81
21520;BME280;10921;53.614;9.882;2023-04-15T02:43:39;100689.75;;;9.39;89.32
21520;BME280;10921;53.614;9.882;2023-04-15T02:46:06;100723.44;;;9.59;90.08
21520;BME280;10921;53.614;9.882;2023-04-15T02:48:32;100719.81;;;9.60;89.97
21520;BME280;10921;53.614;9.882;2023-04-15T02:53:38;100712.53;;;9.62;90.14
21520;BME280;10921;53.614;9.882;2023-04-15T02:56:04;100706.34;;;9.62;90.48
21520;BME280;10921;53.614;9.882;2023-04-15T02:58:31;100693.97;;;9.51;90.34
21520;BME280;10921;53.614;9.882;2023-04-15T03:01:00;100703.13;;;9.58;90.71
21520;BME280;10921;53.614;9.882;2023-04-15T03:03:26;100700.44;;;9.58;90.73
21520;BME280;10921;53.614;9.882;2023-04-15T03:05:54;100712.22;;;9.65;89.95
21520;BME280;10921;53.614;9.882;2023-04-15T03:08:20;100710.66;;;9.63;90.51
21520;BME280;10921;53.614;9.882;2023-04-15T03:10:47;100708.00;;;9.63;90.09
21520;BME280;10921;53.614;9.882;2023-04-15T03:13:14;100700.31;;;9.60;90.54
21520;BME280;10921;53.614;9.882;2023-04-15T03:15:40;100705.91;;;9.66;90.63
21520;BME280;10921;53.614;9.882;2023-04-15T03:18:07;100693.28;;;9.59;90.67
21520;BME280;10921;53.614;9.882;2023-04-15T03:20:33;100712.78;;;9.69;90.51
21520;BME280;10921;53.614;9.882;2023-04-15T03:23:01;100684.72;;;9.55;90.61
21520;BME280;10921;53.614;9.882;2023-04-15T03:25:33;100621.34;;;9.20;89.99
21520;BME280;10921;53.614;9.882;2023-04-15T03:28:02;100652.03;;;9.34;90.29
21520;BME280;10921;53.614;9.882;2023-04-15T03:30:29;100680.09;;;9.47;90.97
21520;BME280;10921;53.614;9.882;2023-04-15T03:32:55;100696.22;;;9.65;90.94
21520;BME280;10921;53.614;9.882;2023-04-15T03:35:22;100697.22;;;9.64;91.01
21520;BME280;10921;53.614;9.882;2023-04-15T03:37:48;100703.94;;;9.68;90.36
21520;BME280;10921;53.614;9.882;2023-04-15T03:40:15;100681.94;;;9.57;90.51
21520;BME280;10921;53.614;9.882;2023-04-15T03:42:42;100673.81;;;9.58;90.90
21520;BME280;10921;53.614;9.882;2023-04-15T03:45:09;100692.59;;;9.66;91.81
21520;BME280;10921;53.614;9.882;2023-04-15T03:47:36;100688.09;;;9.67;91.47
21520;BME280;10921;53.614;9.882;2023-04-15T03:50:02;100666.50;;;9.50;91.68
21520;BME280;10921;53.614;9.882;2023-04-15T03:52:29;100699.06;;;9.73;91.54
21520;BME280;10921;53.614;9.882;2023-04-15T03:54:56;100696.25;;;9.75;91.28
21520;BME280;10921;53.614;9.882;2023-04-15T03:57:23;100703.41;;;9.74;91.55
21520;BME280;10921;53.614;9.882;2023-04-15T03:59:49;100642.94;;;9.36;92.03
21520;BME280;10921;53.614;9.882;2023-04-15T04:02:15;100704.97;;;9.77;91.47
21520;BME280;10921;53.614;9.882;2023-04-15T04:04:42;100672.69;;;9.61;92.09
21520;BME280;10921;53.614;9.882;2023-04-15T04:07:14;100686.00;;;9.70;92.42
21520;BME280;10921;53.614;9.882;2023-04-15T04:09:41;100678.16;;;9.69;91.71
21520;BME280;10921;53.614;9.882;2023-04-15T04:12:08;100708.03;;;9.82;91.34
21520;BME280;10921;53.614;9.882;2023-04-15T04:14:34;100647.16;;;9.48;92.02
21520;BME280;10921;53.614;9.882;2023-04-15T04:17:01;100701.16;;;9.79;92.27
21520;BME280;10921;53.614;9.882;2023-04-15T04:19:27;100644.78;;;9.45;92.37
21520;BME280;10921;53.614;9.882;2023-04-15T04:21:55;100701.16;;;9.79;92.10
21520;BME280;10921;53.614;9.882;2023-04-15T04:24:21;100706.91;;;9.84;91.86
21520;BME280;10921;53.614;9.882;2023-04-15T04:26:48;100699.06;;;9.83;91.54
21520;BME280;10921;53.614;9.882;2023-04-15T04:29:14;100708.72;;;9.84;91.97
21520;BME280;10921;53.614;9.882;2023-04-15T04:31:41;100675.22;;;9.62;91.42
21520;BME280;10921;53.614;9.882;2023-04-15T04:34:08;100716.59;;;9.85;91.92
21520;BME280;10921;53.614;9.882;2023-04-15T04:36:34;100679.41;;;9.65;92.16
21520;BME280;10921;53.614;9.882;2023-04-15T04:39:01;100687.81;;;9.70;92.65
21520;BME280;10921;53.614;9.882;2023-04-15T04:41:27;100710.97;;;9.88;92.50
21520;BME280;10921;53.614;9.882;2023-04-15T04:43:55;100720.66;;;9.90;91.90
21520;BME280;10921;53.614;9.882;2023-04-15T04:46:23;100715.19;;;9.81;92.51
21520;BME280;10921;53.614;9.882;2023-04-15T04:48:50;100684.31;;;9.69;92.67
21520;BME280;10921;53.614;9.882;2023-04-15T04:51:18;100716.88;;;9.92;93.39
21520;BME280;10921;53.614;9.882;2023-04-15T04:53:45;100722.50;;;9.89;94.34
21520;BME280;10921;53.614;9.882;2023-04-15T04:56:11;100710.41;;;9.85;94.05
21520;BME280;10921;53.614;9.882;2023-04-15T04:58:38;100714.22;;;9.92;93.56
21520;BME280;10921;53.614;9.882;2023-04-15T05:01:04;100721.06;;;9.95;93.22
21520;BME280;10921;53.614;9.882;2023-04-15T05:03:31;100726.53;;;9.93;93.93
21520;BME280;10921;53.614;9.882;2023-04-15T05:05:57;100722.75;;;9.96;93.83
21520;BME280;10921;53.614;9.882;2023-04-15T05:08:24;100687.81;;;9.79;93.64
21520;BME280;10921;53.614;9.882;2023-04-15T05:10:51;100719.66;;;10.00;93.39
21520;BME280;10921;53.614;9.882;2023-04-15T05:13:17;100690.78;;;9.76;93.32
21520;BME280;10921;53.614;9.882;2023-04-15T05:15:44;100713.91;;;9.95;92.85
21520;BME280;10921;53.614;9.882;2023-04-15T05:18:11;100720.38;;;10.02;92.94
21520;BME280;10921;53.614;9.882;2023-04-15T05:20:38;100701.88;;;9.91;93.37
21520;BME280;10921;53.614;9.882;2023-04-15T05:23:04;100722.06;;;10.03;93.29
21520;BME280;10921;53.614;9.882;2023-04-15T05:25:31;100699.22;;;9.91;93.51
21520;BME280;10921;53.614;9.882;2023-04-15T05:27:57;100710.28;;;10.06;94.33
21520;BME280;10921;53.614;9.882;2023-04-15T05:30:24;100722.63;;;10.07;94.00
21520;BME280;10921;53.614;9.882;2023-04-15T05:32:51;100700.88;;;10.02;94.16
21520;BME280;10921;53.614;9.882;2023-04-15T05:35:17;100717.44;;;10.05;93.97
21520;BME280;10921;53.614;9.882;2023-04-15T05:37:44;100695.38;;;9.94;94.32
21520;BME280;10921;53.614;9.882;2023-04-15T05:40:11;100714.88;;;10.13;93.78
21520;BME280;10921;53.614;9.882;2023-04-15T05:42:38;100722.31;;;10.10;93.82
21520;BME280;10921;53.614;9.882;2023-04-15T05:45:05;100724.00;;;10.11;94.21
21520;BME280;10921;53.614;9.882;2023-04-15T05:47:35;100733.56;;;10.13;94.20
21520;BME280;10921;53.614;9.882;2023-04-15T05:50:03;100729.63;;;10.17;93.83
21520;BME280;10921;53.614;9.882;2023-04-15T05:52:30;100727.25;;;10.14;93.71
21520;BME280;10921;53.614;9.882;2023-04-15T05:54:57;100734.13;;;10.17;93.65
21520;BME280;10921;53.614;9.882;2023-04-15T05:57:23;100722.88;;;10.13;93.77
21520;BME280;10921;53.614;9.882;2023-04-15T05:59:50;100699.31;;;9.99;94.08
21520;BME280;10921;53.614;9.882;2023-04-15T06:02:19;100683.22;;;9.91;94.11
21520;BME280;10921;53.614;9.882;2023-04-15T06:04:46;100731.59;;;10.15;93.94
21520;BME280;10921;53.614;9.882;2023-04-15T06:07:13;100724.28;;;10.17;94.15
21520;BME280;10921;53.614;9.882;2023-04-15T06:09:40;100690.63;;;9.97;94.87
21520;BME280;10921;53.614;9.882;2023-04-15T06:12:06;100726.53;;;10.12;95.38
21520;BME280;10921;53.614;9.882;2023-04-15T06:14:37;100710.81;;;10.09;95.47
21520;BME280;10921;53.614;9.882;2023-04-15T06:17:04;100731.34;;;10.18;95.30
21520;BME280;10921;53.614;9.882;2023-04-15T06:19:32;100735.13;;;10.26;95.27
21520;BME280;10921;53.614;9.882;2023-04-15T06:21:58;100742.84;;;10.29;95.14
21520;BME280;10921;53.614;9.882;2023-04-15T06:24:25;100750.84;;;10.29;95.39
21520;BME280;10921;53.614;9.882;2023-04-15T06:26:51;100740.31;;;10.27;96.15
21520;BME280;10921;53.614;9.882;2023-04-15T06:29:18;100751.25;;;10.34;95.01
21520;BME280;10921;53.614;9.882;2023-04-15T06:31:46;100734.72;;;10.20;94.98
21520;BME280;10921;53.614;9.882;2023-04-15T06:34:13;100746.47;;;10.28;95.11
21520;BME280;10921;53.614;9.882;2023-04-15T06:36:40;100764.59;;;10.34;95.24
21520;BME280;10921;53.614;9.882;2023-04-15T06:39:06;100748.19;;;10.19;95.29
21520;BME280;10921;53.614;9.882;2023-04-15T06:41:33;100771.47;;;10.36;95.27
21520;BME280;10921;53.614;9.882;2023-04-15T06:44:00;100759.97;;;10.26;95.37
21520;BME280;10921;53.614;9.882;2023-04-15T06:46:27;100758.84;;;10.29;95.55
21520;BME280;10921;53.614;9.882;2023-04-15T06:48:53;100761.50;;;10.38;95.57
21520;BME280;10921;53.614;9.882;2023-04-15T06:51:21;100758.25;;;10.44;95.09
21520;BME280;10921;53.614;9.882;2023-04-15T06:53:47;100758.13;;;10.46;95.04
21520;BME280;10921;53.614;9.882;2023-04-15T06:56:14;100765.97;;;10.47;94.96
21520;BME280;10921;53.614;9.882;2023-04-15T06:58:41;100727.13;;;10.26;94.33
21520;BME280;10921;53.614;9.882;2023-04-15T07:01:07;100762.75;;;10.44;94.48
21520;BME280;10921;53.614;9.882;2023-04-15T07:03:34;100775.53;;;10.50;94.87
21520;BME280;10921;53.614;9.882;2023-04-15T07:06:00;100776.22;;;10.52;94.59
21520;BME280;10921;53.614;9.882;2023-04-15T07:08:32;100776.94;;;10.54;94.97
21520;BME280;10921;53.614;9.882;2023-04-15T07:10:59;100776.63;;;10.57;95.41
21520;BME280;10921;53.614;9.882;2023-04-15T07:13:26;100800.22;;;10.62;95.45
21520;BME280;10921;53.614;9.882;2023-04-15T07:15:53;100806.13;;;10.65;95.38
21520;BME280;10921;53.614;9.882;2023-04-15T07:18:19;100783.38;;;10.61;95.48
21520;BME280;10921;53.614;9.882;2023-04-15T07:20:46;100789.97;;;10.67;95.57
21520;BME280;10921;53.614;9.882;2023-04-15T07:23:12;100768.63;;;10.57;95.51
21520;BME280;10921;53.614;9.882;2023-04-15T07:25:39;100789.38;;;10.73;95.04
21520;BME280;10921;53.614;9.882;2023-04-15T07:28:05;100787.00;;;10.79;95.07
21520;BME280;10921;53.614;9.882;2023-04-15T07:30:32;100791.47;;;10.79;94.91
21520;BME280;10921;53.614;9.882;2023-04-15T07:33:00;100791.34;;;10.71;95.03
21520;BME280;10921;53.614;9.882;2023-04-15T07:35:28;100804.00;;;10.78;94.56
21520;BME280;10921;53.614;9.882;2023-04-15T07:37:54;100775.50;;;10.69;95.02
21520;BME280;10921;53.614;9.882;2023-04-15T07:40:21;100792.19;;;10.81;94.79
21520;BME280;10921;53.614;9.882;2023-04-15T07:42:47;100793.56;;;10.85;94.46
21520;BME280;10921;53.614;9.882;2023-04-15T07:45:15;100793.31;;;10.78;95.22
21520;BME280;10921;53.614;9.882;2023-04-15T07:47:42;100797.53;;;10.81;95.59
21520;BME280;10921;53.614;9.882;2023-04-15T07:50:09;100808.44;;;10.87;95.18
21520;BME280;10921;53.614;9.882;2023-04-15T07:52:36;100774.50;;;10.70;95.63
21520;BME280;10921;53.614;9.882;2023-04-15T07:55:07;100809.72;;;10.93;94.66
21520;BME280;10921;53.614;9.882;2023-04-15T07:57:34;100783.75;;;10.76;94.43
21520;BME280;10921;53.614;9.882;2023-04-15T08:00:02;100808.72;;;10.94;94.35
21520;BME280;10921;53.614;9.882;2023-04-15T08:02:31;100811.25;;;10.96;93.95
21520;BME280;10921;53.614;9.882;2023-04-15T08:04:58;100804.50;;;10.91;94.15
21520;BME280;10921;53.614;9.882;2023-04-15T08:07:25;100781.66;;;10.79;94.04
21520;BME280;10921;53.614;9.882;2023-04-15T08:09:51;100822.63;;;10.98;94.19
21520;BME280;10921;53.614;9.882;2023-04-15T08:12:18;100823.34;;;11.00;94.44
21520;BME280;10921;53.614;9.882;2023-04-15T08:14:44;100819.66;;;11.01;93.94
21520;BME280;10921;53.614;9.882;2023-04-15T08:17:11;100818.81;;;11.00;94.93
21520;BME280;10921;53.614;9.882;2023-04-15T08:19:39;100821.19;;;11.03;94.93
21520;BME280;10921;53.614;9.882;2023-04-15T08:22:06;100800.28;;;10.99;94.77
21520;BME280;10921;53.614;9.882;2023-04-15T08:24:43;100810.38;;;11.05;94.28
21520;BME280;10921;53.614;9.882;2023-04-15T08:27:10;100808.00;;;11.02;94.38
21520;BME280;10921;53.614;9.882;2023-04-15T08:29:37;100826.69;;;11.02;93.98
21520;BME280;10921;53.614;9.882;2023-04-15T08:32:04;100837.91;;;11.15;93.72
21520;BME280;10921;53.614;9.882;2023-04-15T08:34:31;100815.84;;;11.03;94.13
21520;BME280;10921;53.614;9.882;2023-04-15T08:36:57;100830.72;;;11.15;94.30
21520;BME280;10921;53.614;9.882;2023-04-15T08:39:24;100817.13;;;11.09;94.26
21520;BME280;10921;53.614;9.882;2023-04-15T08:41:56;100838.72;;;11.25;94.19
21520;BME280;10921;53.614;9.882;2023-04-15T08:44:25;100832.09;;;11.19;94.08
21520;BME280;10921;53.614;9.882;2023-04-15T08:46:52;100838.28;;;11.30;93.63
21520;BME280;10921;53.614;9.882;2023-04-15T08:49:20;100850.19;;;11.35;93.27
21520;BME280;10921;53.614;9.882;2023-04-15T08:51:48;100854.41;;;11.38;92.82
21520;BME280;10921;53.614;9.882;2023-04-15T08:54:14;100840.50;;;11.34;92.41
21520;BME280;10921;53.614;9.882;2023-04-15T08:56:41;100826.34;;;11.24;92.30
21520;BME280;10921;53.614;9.882;2023-04-15T08:59:08;100849.91;;;11.38;92.28
21520;BME280;10921;53.614;9.882;2023-04-15T09:01:36;100850.91;;;11.37;92.30
21520;BME280;10921;53.614;9.882;2023-04-15T09:04:04;100826.63;;;11.21;91.44
21520;BME280;10921;53.614;9.882;2023-04-15T09:06:33;100852.44;;;11.40;91.01
21520;BME280;10921;53.614;9.882;2023-04-15T09:09:00;100859.19;;;11.44;91.43
21520;BME280;10921;53.614;9.882;2023-04-15T09:11:28;100846.81;;;11.33;91.88
21520;BME280;10921;53.614;9.882;2023-04-15T09:13:56;100867.72;;;11.47;92.02
21520;BME280;10921;53.614;9.882;2023-04-15T09:16:23;100873.47;;;11.52;91.99
21520;BME280;10921;53.614;9.882;2023-04-15T09:18:49;100787.88;;;11.07;91.50
21520;BME280;10921;53.614;9.882;2023-04-15T09:21:17;100878.09;;;11.60;91.76
21520;BME280;10921;53.614;9.882;2023-04-15T09:23:58;100847.88;;;11.50;92.22
21520;BME280;10921;53.614;9.882;2023-04-15T09:26:36;100878.03;;;11.70;92.79
21520;BME280;10921;53.614;9.882;2023-04-15T09:29:07;100863.25;;;11.75;91.78
21520;BME280;10921;53.614;9.882;2023-04-15T09:31:35;100864.38;;;11.82;90.78
21520;BME280;10921;53.614;9.882;2023-04-15T09:34:02;100857.47;;;11.80;91.02
21520;BME280;10921;53.614;9.882;2023-04-15T09:36:39;100870.75;;;11.99;91.88
21520;BME280;10921;53.614;9.882;2023-04-15T09:39:17;100882.22;;;12.09;91.85
21520;BME280;10921;53.614;9.882;2023-04-15T09:41:43;100858.13;;;12.09;90.44
21520;BME280;10921;53.614;9.882;2023-04-15T09:44:23;100879.41;;;12.28;90.88
21520;BME280;10921;53.614;9.882;2023-04-15T09:46:50;100880.34;;;12.37;89.66
21520;BME280;10921;53.614;9.882;2023-04-15T09:49:17;100873.22;;;12.46;89.81
21520;BME280;10921;53.614;9.882;2023-04-15T09:51:43;100850.44;;;12.42;89.25
21520;BME280;10921;53.614;9.882;2023-04-15T09:54:34;100864.81;;;12.58;89.36
21520;BME280;10921;53.614;9.882;2023-04-15T09:57:08;100878.19;;;12.76;87.90
21520;BME280;10921;53.614;9.882;2023-04-15T09:59:35;100893.00;;;12.88;86.19
21520;BME280;10921;53.614;9.882;2023-04-15T10:02:05;100855.81;;;12.85;86.16
21520;BME280;10921;53.614;9.882;2023-04-15T10:04:39;100882.56;;;13.21;85.92
21520;BME280;10921;53.614;9.882;2023-04-15T10:07:11;100887.66;;;13.32;85.64
21520;BME280;10921;53.614;9.882;2023-04-15T10:09:38;100886.56;;;13.43;85.15
21520;BME280;10921;53.614;9.882;2023-04-15T10:12:05;100882.63;;;13.55;83.51
21520;BME280;10921;53.614;9.882;2023-04-15T10:14:34;100888.75;;;13.73;83.08
21520;BME280;10921;53.614;9.882;2023-04-15T10:17:03;100892.97;;;13.92;83.29
21520;BME280;10921;53.614;9.882;2023-04-15T10:19:32;100872.53;;;13.91;82.62
21520;BME280;10921;53.614;9.882;2023-04-15T10:21:59;100895.09;;;14.14;81.30
21520;BME280;10921;53.614;9.882;2023-04-15T10:24:27;100860.38;;;14.13;80.37
21520;BME280;10921;53.614;9.882;2023-04-15T10:26:53;100900.56;;;14.47;78.98
21520;BME280;10921;53.614;9.882;2023-04-15T10:29:20;100895.38;;;14.61;78.14
21520;BME280;10921;53.614;9.882;2023-04-15T10:31:48;100879.44;;;14.60;76.95
21520;BME280;10921;53.614;9.882;2023-04-15T10:34:17;100892.22;;;14.66;76.98
21520;BME280;10921;53.614;9.882;2023-04-15T10:36:45;100906.47;;;14.83;76.57
21520;BME280;10921;53.614;9.882;2023-04-15T10:39:42;100905.28;;;15.01;77.68
21520;BME280;10921;53.614;9.882;2023-04-15T10:42:13;100851.09;;;14.65;75.43
21520;BME280;10921;53.614;9.882;2023-04-15T10:44:42;100904.44;;;15.25;76.21
21520;BME280;10921;53.614;9.882;2023-04-15T10:47:14;100903.19;;;15.52;75.60
21520;BME280;10921;53.614;9.882;2023-04-15T10:49:48;100893.88;;;15.87;74.74
21520;BME280;10921;53.614;9.882;2023-04-15T10:52:20;100889.03;;;16.13;72.63
21520;BME280;10921;53.614;9.882;2023-04-15T10:54:49;100909.75;;;16.36;70.50
21520;BME280;10921;53.614;9.882;2023-04-15T10:57:22;100887.44;;;16.50;70.92
21520;BME280;10921;53.614;9.882;2023-04-15T11:05:16;100907.69;;;17.14;66.92
21520;BME280;10921;53.614;9.882;2023-04-15T11:12:39;100901.53;;;17.73;63.81
21520;BME280;10921;53.614;9.882;2023-04-15T11:20:25;100900.22;;;18.34;61.31
21520;BME280;10921;53.614;9.882;2023-04-15T11:22:53;100907.78;;;18.39;60.90
21520;BME280;10921;53.614;9.882;2023-04-15T11:25:40;100920.72;;;18.43;60.74
21520;BME280;10921;53.614;9.882;2023-04-15T11:28:09;100914.00;;;18.39;60.44
21520;BME280;10921;53.614;9.882;2023-04-15T11:30:38;100918.75;;;18.37;58.12
21520;BME280;10921;53.614;9.882;2023-04-15T11:33:07;100920.44;;;18.38;57.11
21520;BME280;10921;53.614;9.882;2023-04-15T11:35:34;100922.31;;;18.38;56.70
21520;BME280;10921;53.614;9.882;2023-04-15T11:38:07;100923.91;;;18.32;56.51
21520;BME280;10921;53.614;9.882;2023-04-15T11:40:34;100933.06;;;18.31;56.25
21520;BME280;10921;53.614;9.882;2023-04-15T11:43:14;100941.81;;;18.33;56.96
21520;BME280;10921;53.614;9.882;2023-04-15T11:45:55;100938.00;;;18.49;58.25
21520;BME280;10921;53.614;9.882;2023-04-15T11:48:32;100950.97;;;18.17;56.19
21520;BME280;10921;53.614;9.882;2023-04-15T11:51:01;100942.97;;;17.95;55.69
21520;BME280;10921;53.614;9.882;2023-04-15T11:56:09;100953.66;;;17.88;56.62
21520;BME280;10921;53.614;9.882;2023-04-15T11:58:36;100957.28;;;17.66;56.33
21520;BME280;10921;53.614;9.882;2023-04-15T12:01:04;100898.41;;;17.32;56.74
21520;BME280;10921;53.614;9.882;2023-04-15T12:03:42;100950.88;;;17.67;55.87
21520;BME280;10921;53.614;9.882;2023-04-15T12:06:19;100953.47;;;17.75;56.65
21520;BME280;10921;53.614;9.882;2023-04-15T12:11:18;100940.91;;;17.67;56.30
21520;BME280;10921;53.614;9.882;2023-04-15T12:13:49;100972.53;;;17.73;57.54
21520;BME280;10921;53.614;9.882;2023-04-15T12:16:17;100967.56;;;17.62;55.86
21520;BME280;10921;53.614;9.882;2023-04-15T12:18:45;100964.78;;;17.55;56.07
21520;BME280;10921;53.614;9.882;2023-04-15T12:21:13;100982.41;;;17.66;55.74
21520;BME280;10921;53.614;9.882;2023-04-15T12:23:56;100981.41;;;17.67;55.56
21520;BME280;10921;53.614;9.882;2023-04-15T12:26:37;100990.00;;;17.63;55.97
21520;BME280;10921;53.614;9.882;2023-04-15T12:29:07;100991.97;;;17.54;55.17
21520;BME280;10921;53.614;9.882;2023-04-15T12:31:34;100983.44;;;17.42;54.10
21520;BME280;10921;53.614;9.882;2023-04-15T12:34:06;100996.00;;;17.35;54.44
21520;BME280;10921;53.614;9.882;2023-04-15T12:36:33;101003.13;;;17.28;54.35
21520;BME280;10921;53.614;9.882;2023-04-15T12:39:11;101017.69;;;17.19;54.09
21520;BME280;10921;53.614;9.882;2023-04-15T12:41:49;100988.88;;;16.97;54.68
21520;BME280;10921;53.614;9.882;2023-04-15T12:44:15;101002.16;;;16.98;55.18
21520;BME280;10921;53.614;9.882;2023-04-15T12:46:42;101007.38;;;17.00;55.24
21520;BME280;10921;53.614;9.882;2023-04-15T12:49:09;101007.88;;;17.03;55.44
21520;BME280;10921;53.614;9.882;2023-04-15T12:51:35;101012.97;;;16.98;55.96
21520;BME280;10921;53.614;9.882;2023-04-15T12:54:02;101019.31;;;17.05;56.73
21520;BME280;10921;53.614;9.882;2023-04-15T12:56:29;101008.72;;;17.04;56.01
21520;BME280;10921;53.614;9.882;2023-04-15T12:58:55;101025.19;;;17.09;55.44
21520;BME280;10921;53.614;9.882;2023-04-15T13:01:22;101027.72;;;17.10;55.74
21520;BME280;10921;53.614;9.882;2023-04-15T13:03:49;101024.47;;;17.15;55.63
21520;BME280;10921;53.614;9.882;2023-04-15T13:06:16;101006.19;;;17.02;55.58
21520;BME280;10921;53.614;9.882;2023-04-15T13:08:43;101025.72;;;17.27;55.69
21520;BME280;10921;53.614;9.882;2023-04-15T13:11:24;101030.22;;;17.35;55.75
21520;BME280;10921;53.614;9.882;2023-04-15T13:13:50;101020.19;;;17.43;55.44
21520;BME280;10921;53.614;9.882;2023-04-15T13:16:19;101018.75;;;17.55;56.82
21520;BME280;10921;53.614;9.882;2023-04-15T13:18:47;101013.63;;;17.61;55.86
21520;BME280;10921;53.614;9.882;2023-04-15T13:21:14;100987.56;;;17.53;55.68
21520;BME280;10921;53.614;9.882;2023-04-15T13:23:41;101025.25;;;17.84;55.60